Latest Weather Observations for Portland Airport

IDV60801

Issued at 11:02 pm EST Wednesday 12 August 2020 (issued every 10 minutes, with the page automatically refreshed every 10 minutes)

About weather observations | Map of weather stations | Latest weather observations for VIC | Other Formats
Station Details ID: 090171 Name: CASHMORE AIRPORT Lat: -38.31 Lon: 141.47 Height: 80.9 m
Data from the previous 72 hours. | See also: Recent months at Portland Airport
Date/Time
EST
Temp
°C
App
Temp
°C
Dew
Point
°C
Rel
Hum
%
Delta-T
°C
Wind Press
QNH
hPa
Press
MSL
hPa
Rain since
9am
mm
Dir  Spd
km/h
Gust
km/h
Spd
kts
Gust
kts
12/11:00pm 11.7 8.1 10.4 92 0.7 NNW 20 30 11 16 1006.6 1006.7 0.2
12/10:40pm 12.0 8.8 11.1 94 0.5 NNW 19 26 10 14 1006.6 1006.7 0.2
12/10:30pm 11.8 9.7 11.0 95 0.4 NNW 13 20 7 11 1006.5 1006.6 0.2
12/10:00pm 11.3 9.0 10.5 95 0.4 N 13 17 7 9 1006.4 1006.5 0.2
12/09:30pm 11.1 9.1 10.3 95 0.4 N 11 15 6 8 1006.3 1006.4 0.2
12/09:28pm 11.1 9.1 10.3 95 0.4 N 11 15 6 8 1006.3 1006.4 0.2
12/09:04pm 11.5 9.3 10.7 95 0.4 N 13 17 7 9 1006.1 1006.2 0.2
12/09:00pm 11.5 9.3 10.7 95 0.4 N 13 19 7 10 1006.1 1006.2 0.2
12/08:30pm 11.8 9.7 11.0 95 0.4 N 13 19 7 10 1005.8 1005.9 0.2
12/08:26pm 11.7 9.9 10.9 95 0.4 N 11 15 6 8 1005.8 1005.9 0.2
12/08:09pm 11.7 9.9 10.8 94 0.5 N 11 17 6 9 1005.6 1005.7 0.2
12/08:00pm 11.7 9.5 10.8 94 0.5 N 13 17 7 9 1005.6 1005.7 0.2
12/07:30pm 12.0 9.8 10.9 93 0.6 N 13 17 7 9 1005.4 1005.5 0.2
12/07:00pm 12.2 9.7 10.9 92 0.7 N 15 19 8 10 1005.2 1005.3 0.2
12/06:30pm 12.4 9.8 10.8 90 0.8 N 15 20 8 11 1004.9 1005.0 0.2
12/06:00pm 12.5 9.9 10.6 88 1.0 N 15 24 8 13 1004.5 1004.6 0.2
12/05:30pm 12.8 10.2 10.7 87 1.1 N 15 22 8 12 1004.3 1004.4 0.2
12/05:00pm 13.2 11.0 10.7 85 1.3 N 13 19 7 10 1004.1 1004.2 0.2
12/04:30pm 13.7 11.0 10.3 80 1.8 N 15 20 8 11 1003.9 1004.0 0.0
12/04:00pm 14.4 11.7 10.4 77 2.1 N 15 20 8 11 1003.9 1004.0 0.0
12/03:30pm 14.6 11.4 10.0 74 2.4 N 17 26 9 14 1003.9 1004.0 0.0
12/03:00pm 14.9 11.7 10.1 73 2.5 N 17 24 9 13 1003.7 1003.8 0.0
12/02:30pm 15.3 12.1 10.1 71 2.7 N 17 24 9 13 1003.7 1003.8 0.0
12/02:00pm 14.8 11.6 9.8 72 2.6 N 17 28 9 15 1003.9 1004.0 0.0
12/01:30pm 14.8 12.0 10.0 73 2.5 N 15 20 8 11 1004.1 1004.2 0.0
12/01:00pm 14.8 11.2 9.8 72 2.6 N 19 24 10 13 1004.3 1004.4 0.0
12/12:30pm 15.7 12.0 10.2 70 2.9 N 20 30 11 16 1004.6 1004.7 0.0
12/12:00pm 15.0 11.4 10.0 72 2.6 N 19 28 10 15 1005.0 1005.1 0.0
12/11:30am 14.0 10.0 9.2 73 2.5 N 20 32 11 17 1005.3 1005.4 0.0
12/11:00am 13.8 10.1 9.3 74 2.3 N 19 28 10 15 1005.5 1005.6 0.0
12/10:30am 13.6 9.6 9.1 74 2.3 N 20 28 11 15 1005.7 1005.8 0.0
12/10:00am 12.6 8.5 8.5 76 2.1 N 20 32 11 17 1005.7 1005.8 0.0
12/09:30am 12.5 8.1 8.8 78 1.9 N 22 32 12 17 1005.8 1005.9 0.0
12/09:00am 11.8 7.3 8.5 80 1.6 N 22 32 12 17 1006.0 1006.1 0.2
12/08:30am 11.0 7.0 8.4 84 1.3 N 19 24 10 13 1006.1 1006.2 0.2
12/08:00am 10.3 6.6 8.1 86 1.1 N 17 24 9 13 1005.9 1006.0 0.2
12/07:30am 10.4 6.8 8.2 86 1.1 N 17 24 9 13 1005.9 1006.0 0.2
12/07:00am 10.4 7.2 8.3 87 1.0 N 15 20 8 11 1005.9 1006.0 0.2
12/06:30am 10.4 6.8 8.3 87 1.0 N 17 24 9 13 1005.8 1005.9 0.2
12/06:00am 10.5 7.3 8.3 86 1.1 N 15 22 8 12 1006.0 1006.1 0.2
12/05:30am 10.5 7.3 8.3 86 1.1 N 15 22 8 12 1006.1 1006.2 0.2
12/05:00am 10.8 7.2 8.2 84 1.3 N 17 22 9 12 1006.1 1006.2 0.2
12/04:30am 10.9 8.0 8.3 84 1.3 N 13 22 7 12 1006.1 1006.2 0.2
12/04:00am 10.9 7.2 8.1 83 1.4 N 17 22 9 12 1006.2 1006.3 0.2
12/03:30am 10.9 7.2 8.1 83 1.4 N 17 26 9 14 1006.4 1006.5 0.2
12/03:00am 10.9 6.9 8.3 84 1.3 N 19 26 10 14 1006.5 1006.6 0.2
12/02:30am 11.0 6.4 8.2 83 1.4 N 22 32 12 17 1006.8 1006.9 0.2
12/02:00am 11.0 5.7 8.4 84 1.3 N 26 35 14 19 1007.3 1007.4 0.2
12/01:30am 10.9 6.7 8.3 84 1.3 N 20 33 11 18 1007.3 1007.4 0.2
12/01:00am 10.9 6.0 8.3 84 1.3 N 24 37 13 20 1007.2 1007.3 0.2
12/12:30am 10.5 6.0 8.4 87 1.0 NNE 22 33 12 18 1007.7 1007.8 0.2
12/12:00am 10.2 6.8 9.0 92 0.6 NNE 17 24 9 13 1008.0 1008.1 0.2
 
Date/Time
EST
Temp
°C
App
Temp
°C
Dew
Point
°C
Rel
Hum
%
Delta-T
°C
Wind Press
QNH
hPa
Press
MSL
hPa
Rain since
9am
mm
Dir  Spd
km/h
Gust
km/h
Spd
kts
Gust
kts
11/11:46pm 10.3 6.5 8.9 91 0.7 NNE 19 26 10 14 1008.2 1008.3 0.2
11/11:30pm 10.4 6.5 8.8 90 0.8 NNE 19 28 10 15 1008.4 1008.5 0.2
11/11:16pm 10.4 6.3 8.5 88 0.9 NNE 20 28 11 15 1008.4 1008.5 0.0
11/11:00pm 10.8 6.6 8.2 84 1.3 NNE 20 30 11 16 1008.6 1008.7 0.0
11/10:30pm 11.4 6.3 7.7 78 1.8 N 24 37 13 20 1008.7 1008.8 0.0
11/10:00pm 11.5 7.1 7.6 77 1.9 N 20 32 11 17 1009.0 1009.1 0.0
11/09:30pm 11.7 7.4 7.2 74 2.2 N 19 32 10 17 1009.0 1009.1 0.0
11/09:00pm 11.8 7.6 7.3 74 2.2 NNE 19 28 10 15 1008.9 1009.0 0.0
11/08:30pm 12.0 7.2 7.3 73 2.3 N 22 35 12 19 1009.2 1009.3 0.0
11/08:00pm 11.9 7.6 7.2 73 2.3 NNE 19 32 10 17 1009.2 1009.3 0.0
11/07:30pm 12.3 7.8 7.0 70 2.6 SW 20 30 11 16 1009.1 1009.2 0.0
11/07:00pm 12.5 8.0 7.0 69 2.7 N 20 32 11 17 1009.2 1009.3 0.0
11/06:30pm 12.5 8.0 7.0 69 2.7 N 20 32 11 17 1008.9 1009.0 0.0
11/06:00pm 12.4 8.5 7.3 71 2.5 N 17 24 9 13 1008.9 1009.0 0.0
11/05:30pm 12.6 8.4 7.3 70 2.6 NNE 19 28 10 15 1008.9 1009.0 0.0
11/05:00pm 12.7 8.8 7.2 69 2.7 N 17 24 9 13 1009.1 1009.2 0.0
11/04:30pm 13.1 8.8 7.1 67 2.9 NNE 19 30 10 16 1009.1 1009.2 0.0
11/04:00pm 13.4 8.6 7.2 66 3.0 N 22 33 12 18 1009.1 1009.2 0.0
11/03:30pm 13.4 9.0 7.4 67 2.9 NNE 20 32 11 17 1009.0 1009.1 0.0
11/03:00pm 13.0 8.5 7.0 67 2.9 N 20 28 11 15 1009.6 1009.7 0.0
11/02:30pm 12.8 8.5 6.8 67 2.9 N 19 28 10 15 1009.6 1009.7 0.0
11/02:00pm 12.7 8.1 6.5 66 3.0 N 20 30 11 16 1010.0 1010.1 0.0
11/01:30pm 12.3 8.2 6.4 67 2.8 N 17 26 9 14 1010.4 1010.5 0.0
11/01:00pm 12.3 8.3 6.6 68 2.7 N 17 22 9 12 1010.8 1010.9 0.0
11/12:30pm 12.0 7.9 6.1 67 2.8 N 17 26 9 14 1011.6 1011.7 0.0
11/12:00pm 12.2 7.6 6.3 67 2.8 NNE 20 30 11 16 1012.4 1012.4 0.0
11/11:30am 11.7 7.0 6.2 69 2.6 NE 20 26 11 14 1012.5 1012.5 0.0
11/11:00am 11.6 7.1 5.9 68 2.7 N 19 24 10 13 1013.0 1013.0 0.0
11/10:30am 11.4 6.9 5.9 69 2.6 N 19 28 10 15 1013.2 1013.2 0.0
11/10:00am 11.1 7.0 6.0 71 2.4 NNE 17 26 9 14 1013.1 1013.1 0.0
11/09:30am 10.4 6.2 5.6 72 2.2 NNE 17 20 9 11 1013.7 1013.8 0.0
11/09:00am 10.4 5.6 5.4 71 2.3 NNE 20 28 11 15 1013.7 1013.8 0.0
11/08:30am 10.2 4.5 5.0 70 2.4 NNE 24 33 13 18 1013.7 1013.8 0.0
11/08:00am 9.7 4.9 4.9 72 2.2 NNE 19 24 10 13 1013.8 1013.9 0.0
11/07:30am 9.6 5.2 4.6 71 2.2 N 17 22 9 12 1014.0 1014.1 0.0
11/07:00am 9.7 5.3 4.7 71 2.2 NNE 17 28 9 15 1013.9 1014.0 0.0
11/06:30am 9.5 5.5 4.7 72 2.2 NNE 15 22 8 12 1013.9 1014.0 0.0
11/06:00am 9.4 5.0 4.6 72 2.1 N 17 22 9 12 1014.2 1014.3 0.0
11/05:30am 9.2 5.6 5.0 75 1.9 NNE 13 22 7 12 1014.1 1014.2 0.0
11/05:00am 9.1 4.7 4.9 75 1.9 NNE 17 24 9 13 1014.0 1014.1 0.0
11/04:30am 8.9 4.9 5.1 77 1.7 NNE 15 20 8 11 1013.9 1014.0 0.0
11/04:00am 8.8 5.2 5.2 78 1.6 NNE 13 19 7 10 1014.3 1014.4 0.0
11/03:30am 8.8 4.9 5.4 79 1.5 N 15 20 8 11 1014.8 1014.9 0.0
11/03:00am 7.9 3.6 5.4 84 1.1 N 17 22 9 12 1015.4 1015.5 0.0
11/02:30am 7.7 3.8 5.3 85 1.1 N 15 20 8 11 1015.9 1016.0 0.0
11/02:00am 7.0 4.0 5.8 92 0.5 N 11 17 6 9 1015.9 1016.0 0.0
11/01:30am 4.7 2.1 3.0 89 0.7 N 6 9 3 5 1016.2 1016.3 0.0
11/01:00am 5.0 3.5 3.2 88 0.7 CALM 0 6 0 3 1016.6 1016.7 0.0
11/12:30am 5.6 3.8 3.4 86 0.9 NE 2 7 1 4 1016.7 1016.8 0.0
11/12:00am 6.8 4.7 3.9 82 1.2 NE 4 9 2 5 1016.8 1016.9 0.0
 
Date/Time
EST
Temp
°C
App
Temp
°C
Dew
Point
°C
Rel
Hum
%
Delta-T
°C
Wind Press
QNH
hPa
Press
MSL
hPa
Rain since
9am
mm
Dir  Spd
km/h
Gust
km/h
Spd
kts
Gust
kts
10/11:30pm 7.2 4.7 4.9 85 1.0 NE 7 11 4 6 1016.5 1016.6 0.0
10/11:00pm 7.3 4.9 4.4 82 1.3 NE 6 9 3 5 1016.9 1017.0 0.0
10/10:30pm 7.7 4.8 4.5 80 1.4 NNE 9 13 5 7 1017.1 1017.2 0.0
10/10:00pm 8.2 3.8 5.0 80 1.4 NNE 17 20 9 11 1017.0 1017.1 0.0
10/09:30pm 8.2 4.3 5.3 82 1.3 NE 15 19 8 10 1017.2 1017.3 0.0
10/09:00pm 6.9 4.0 4.7 86 1.0 NE 9 11 5 6 1017.3 1017.4 0.0
10/08:30pm 6.0 3.5 3.8 86 0.9 NE 6 9 3 5 1017.3 1017.4 0.0
10/08:00pm 6.2 3.7 3.7 84 1.1 N 6 6 3 3 1017.8 1017.9 0.0
10/07:30pm 6.8 4.3 3.8 81 1.3 N 6 7 3 4 1018.1 1018.2 0.0
10/07:00pm 9.1 6.7 4.5 73 2.0 N 6 7 3 4 1018.0 1018.1 0.0
10/06:30pm 10.3 7.6 5.5 72 2.2 NNE 9 11 5 6 1017.6 1017.7 0.0
10/06:00pm 11.0 8.6 5.3 68 2.6 NE 7 9 4 5 1017.6 1017.7 0.0
10/05:30pm 12.9 10.6 5.8 62 3.4 N 7 9 4 5 1017.9 1018.0 0.0
10/05:00pm 14.1 11.5 6.2 59 3.8 N 9 13 5 7 1018.2 1018.3 0.0
10/04:30pm 14.6 11.6 5.9 56 4.2 N 11 17 6 9 1018.2 1018.3 0.0
10/04:00pm 14.6 11.2 5.7 55 4.2 NNE 13 22 7 12 1018.1 1018.2 0.0
10/03:30pm 14.6 10.8 5.9 56 4.2 N 15 22 8 12 1018.2 1018.3 0.0
10/03:00pm 14.4 11.1 6.5 59 3.8 NNE 13 22 7 12 1018.4 1018.5 0.0
10/02:30pm 14.3 10.6 6.4 59 3.8 NNE 15 22 8 12 1018.8 1018.9 0.0
10/02:00pm 13.8 9.7 6.4 61 3.6 NNE 17 22 9 12 1019.1 1019.2 0.0
10/01:30pm 13.2 10.0 7.0 66 3.0 NE 13 20 7 11 1019.9 1020.0 0.0
10/01:00pm 12.7 9.6 7.4 70 2.6 NE 13 17 7 9 1020.5 1020.6 0.0
10/12:30pm 11.6 7.3 6.9 73 2.2 ENE 19 26 10 14 1020.9 1021.0 0.0
10/12:00pm 10.8 5.5 6.6 75 2.0 ENE 24 37 13 20 1021.5 1021.6 0.0
10/11:30am 11.5 6.7 7.2 75 2.1 ENE 22 35 12 19 1022.0 1022.1 0.0
10/11:00am 11.9 6.7 7.2 73 2.3 ENE 24 35 13 19 1022.0 1022.1 0.0
10/10:30am 11.6 7.0 6.5 71 2.4 ENE 20 33 11 18 1022.0 1022.1 0.0
10/10:00am 10.9 6.3 6.5 74 2.1 E 20 30 11 16 1022.2 1022.3 0.0
10/09:30am 10.4 6.5 6.9 79 1.7 E 17 24 9 13 1022.4 1022.5 0.0
10/09:00am 8.8 5.6 6.8 87 0.9 E 13 19 7 10 1022.5 1022.6 0.2
10/08:30am 7.8 5.3 6.6 92 0.6 ENE 9 15 5 8 1022.5 1022.6 0.2
10/08:00am 6.4 2.9 5.4 93 0.4 ENE 13 17 7 9 1022.5 1022.6 0.2
10/07:30am 6.0 3.2 5.1 94 0.4 ENE 9 13 5 7 1022.7 1022.8 0.2
10/07:00am 5.1 2.5 4.2 94 0.4 E 7 9 4 5 1022.8 1022.9 0.2
10/06:30am 5.2 2.6 4.2 93 0.4 ENE 7 11 4 6 1022.6 1022.7 0.2
10/06:00am 5.4 3.0 4.2 92 0.5 ENE 6 9 3 5 1022.6 1022.7 0.2
10/05:30am 6.4 3.6 5.2 92 0.5 ENE 9 13 5 7 1022.2 1022.3 0.2
10/05:00am 6.5 4.1 5.1 91 0.6 ENE 7 11 4 6 1022.3 1022.4 0.2
10/04:30am 6.6 4.3 4.9 89 0.7 E 6 7 3 4 1022.3 1022.4 0.2
10/04:00am 7.8 5.2 5.9 88 0.9 ENE 9 11 5 6 1022.1 1022.2 0.2
10/03:30am 9.1 7.1 6.9 86 1.0 ENE 7 9 4 5 1022.3 1022.4 0.2
10/03:00am 9.6 6.9 7.2 85 1.1 E 11 15 6 8 1022.5 1022.6 0.2
10/02:30am 9.3 6.8 6.7 84 1.2 E 9 13 5 7 1022.7 1022.8 0.2
10/02:00am 9.2 6.3 6.6 84 1.2 E 11 13 6 7 1022.6 1022.7 0.2
10/01:30am 8.4 5.7 5.7 83 1.2 E 9 13 5 7 1022.6 1022.7 0.2
10/01:00am 9.1 6.4 5.8 80 1.5 ESE 9 13 5 7 1022.7 1022.8 0.2
10/12:30am 9.2 6.2 5.9 80 1.5 ESE 11 19 6 10 1022.8 1022.9 0.2
10/12:00am 9.4 6.8 6.3 81 1.4 ESE 9 13 5 7 1022.8 1022.9 0.2
 
Date/Time
EST
Temp
°C
App
Temp
°C
Dew
Point
°C
Rel
Hum
%
Delta-T
°C
Wind Press
QNH
hPa
Press
MSL
hPa
Rain since
9am
mm
Dir  Spd
km/h
Gust
km/h
Spd
kts
Gust
kts
09/11:30pm 9.3 6.3 6.0 80 1.5 ESE 11 15 6 8 1023.1 1023.2 0.2

Other formats

Comma delimited format used in spreadsheet applications
http://www.bom.gov.au/fwo/IDV60801/IDV60801.94828.axf

JavaScript Object Notation format (JSON) in row-major order
http://www.bom.gov.au/fwo/IDV60801/IDV60801.94828.json

Data quality

Most of these data are generated automatically and are frequently updated. Quality checks on data are not normally performed. It is possible for incorrect values to appear. Refer to information at About Latest Weather Observations and please check the disclaimer before using these data.